createdAt,value
2022-10-05T00:01:24.629Z,3.88
2022-10-05T00:05:30.111Z,4.30
2022-10-05T00:09:33.888Z,4.50
2022-10-05T00:13:33.903Z,3.97
2022-10-05T00:21:35.748Z,4.47
2022-10-05T00:25:35.662Z,3.83
2022-10-05T00:29:37.016Z,5.20
2022-10-05T00:33:38.895Z,4.72
2022-10-05T00:37:39.958Z,4.50
2022-10-05T00:41:57.429Z,4.10
2022-10-05T00:46:02.283Z,4.47
2022-10-05T00:50:44.078Z,4.22
2022-10-05T00:54:53.170Z,4.60
2022-10-05T00:59:06.599Z,3.83
2022-10-05T01:03:12.805Z,4.43
2022-10-05T01:07:23.323Z,4.72
2022-10-05T01:11:32.043Z,4.75
2022-10-05T01:15:37.304Z,4.05
2022-10-05T01:20:00.496Z,5.03
2022-10-05T01:24:19.939Z,4.30
2022-10-05T01:28:26.943Z,5.47
2022-10-05T01:32:35.501Z,5.50
2022-10-05T01:36:42.736Z,4.93
2022-10-05T01:40:53.219Z,4.53
2022-10-05T01:45:07.005Z,4.45
2022-10-05T01:49:20.190Z,4.43
2022-10-05T01:53:29.619Z,4.72
2022-10-05T01:57:42.851Z,4.50
2022-10-05T02:01:54.198Z,4.68
2022-10-05T02:05:59.217Z,4.10
2022-10-05T02:10:02.864Z,4.07
2022-10-05T02:14:09.371Z,4.15
2022-10-05T02:18:16.090Z,3.38
2022-10-05T02:22:19.904Z,4.22
2022-10-05T02:26:21.198Z,3.88
2022-10-05T02:30:21.662Z,4.43
2022-10-05T02:34:25.944Z,3.78
2022-10-05T02:38:34.927Z,3.70
2022-10-05T02:42:44.184Z,4.25
2022-10-05T02:46:53.185Z,4.22
2022-10-05T02:51:06.927Z,4.07
2022-10-05T02:55:17.845Z,3.70
2022-10-05T02:59:28.496Z,4.05
2022-10-05T03:03:34.144Z,3.97
2022-10-05T03:07:46.401Z,3.97
2022-10-05T03:11:52.948Z,4.35
2022-10-05T03:16:19.296Z,4.35
2022-10-05T03:20:30.555Z,3.85
2022-10-05T03:24:47.853Z,3.97
2022-10-05T03:28:58.311Z,4.25
2022-10-05T03:33:08.488Z,4.22
2022-10-05T03:37:16.780Z,4.63
2022-10-05T03:41:27.396Z,4.45
2022-10-05T03:45:32.693Z,5.35
2022-10-05T03:49:46.909Z,4.22
2022-10-05T03:53:55.102Z,4.32
2022-10-05T03:58:02.186Z,4.38
2022-10-05T04:02:04.811Z,4.30
2022-10-05T04:06:12.379Z,4.53
2022-10-05T04:10:19.820Z,4.50
2022-10-05T04:14:29.554Z,4.82
2022-10-05T04:18:34.260Z,5.50
2022-10-05T04:22:40.632Z,4.57
2022-10-05T04:26:44.395Z,5.25
2022-10-05T04:30:50.826Z,5.93
2022-10-05T04:35:16.128Z,6.68
2022-10-05T04:39:24.350Z,10.05
2022-10-05T04:43:36.964Z,6.40
2022-10-05T04:48:26.112Z,5.40
2022-10-05T04:52:32.852Z,6.72
2022-10-05T04:56:38.495Z,6.32
2022-10-05T05:00:55.231Z,6.45
2022-10-05T05:05:25.630Z,5.80
2022-10-05T05:09:59.406Z,6.43
2022-10-05T05:14:34.115Z,6.00
2022-10-05T05:18:55.306Z,6.93
2022-10-05T05:23:07.863Z,5.57
2022-10-05T05:27:29.953Z,5.60
2022-10-05T05:31:40.162Z,6.15
2022-10-05T05:35:53.028Z,6.28
2022-10-05T05:40:04.629Z,5.75
2022-10-05T05:44:16.037Z,5.68
2022-10-05T05:48:21.806Z,6.10
2022-10-05T05:52:26.367Z,5.38
2022-10-05T05:56:36.154Z,5.57
2022-10-05T06:00:43.107Z,4.82
2022-10-05T06:04:48.245Z,4.95
2022-10-05T06:08:51.796Z,4.68
2022-10-05T06:13:01.605Z,4.65
2022-10-05T06:21:09.034Z,4.90
2022-10-05T06:25:25.079Z,4.78
2022-10-05T06:29:36.681Z,5.55
2022-10-05T06:33:51.078Z,5.03
2022-10-05T06:38:06.577Z,5.50
2022-10-05T06:42:30.642Z,4.05
2022-10-05T06:46:38.257Z,4.63
2022-10-05T06:50:45.372Z,4.75
2022-10-05T06:54:59.956Z,4.72
2022-10-05T06:59:07.762Z,5.18
2022-10-05T07:03:22.668Z,4.95
2022-10-05T07:07:26.656Z,4.50
2022-10-05T07:11:41.562Z,4.72
2022-10-05T07:15:52.327Z,4.63
2022-10-05T07:20:03.501Z,4.13
2022-10-05T07:24:14.887Z,5.40
2022-10-05T07:28:27.739Z,4.10
2022-10-05T07:32:37.093Z,3.95
2022-10-05T07:37:02.898Z,3.90
2022-10-05T07:41:08.073Z,4.20
2022-10-05T07:45:18.089Z,4.95
2022-10-05T07:49:27.747Z,4.35
2022-10-05T07:57:41.323Z,5.22
2022-10-05T08:01:47.256Z,4.78
2022-10-05T08:05:48.891Z,3.92
2022-10-05T08:09:56.742Z,4.03
2022-10-05T08:14:02.405Z,4.20
2022-10-05T08:18:04.702Z,4.28
2022-10-05T08:22:11.284Z,4.30
2022-10-05T08:26:25.145Z,4.88
2022-10-05T08:30:25.780Z,4.07
2022-10-05T08:34:31.502Z,4.85
2022-10-05T08:38:34.794Z,5.05
2022-10-05T08:43:13.288Z,3.95
2022-10-05T08:47:34.816Z,3.97
2022-10-05T08:52:07.930Z,3.58
2022-10-05T08:56:31.518Z,3.78
2022-10-05T09:00:41.816Z,3.30
2022-10-05T09:05:01.556Z,3.58
2022-10-05T09:13:46.274Z,3.00
2022-10-05T09:18:28.397Z,3.53
2022-10-05T09:23:07.105Z,3.28
2022-10-05T09:27:14.885Z,3.28
2022-10-05T09:31:37.789Z,3.58
2022-10-05T09:36:05.524Z,2.90
2022-10-05T09:40:49.525Z,3.78
2022-10-05T09:45:22.451Z,3.38
2022-10-05T09:49:49.503Z,4.15
2022-10-05T09:54:28.499Z,3.58
2022-10-05T09:58:52.454Z,3.75
2022-10-05T10:03:48.457Z,4.65
2022-10-05T10:08:13.828Z,5.38
2022-10-05T10:12:27.923Z,5.32
2022-10-05T10:17:11.201Z,4.80
2022-10-05T10:21:58.544Z,6.05
2022-10-05T10:26:37.756Z,5.55
2022-10-05T10:31:02.031Z,5.72
2022-10-05T10:35:18.475Z,4.95
2022-10-05T10:39:28.202Z,4.80
2022-10-05T10:43:49.345Z,5.65
2022-10-05T10:47:54.614Z,5.15
2022-10-05T10:52:28.349Z,4.07
2022-10-05T10:56:55.204Z,4.13
2022-10-05T11:01:04.034Z,5.15
2022-10-05T11:05:28.820Z,6.13
2022-10-05T11:09:52.367Z,5.80
2022-10-05T11:14:20.722Z,5.90
2022-10-05T11:18:26.358Z,5.18
2022-10-05T11:22:51.863Z,4.75
2022-10-05T11:27:26.100Z,5.20
2022-10-05T11:31:40.037Z,4.97
2022-10-05T11:36:00.584Z,2.17
2022-10-05T11:40:42.753Z,3.67
2022-10-05T11:45:24.579Z,2.05
2022-10-05T11:49:32.959Z,2.22
2022-10-05T11:53:41.119Z,2.47
2022-10-05T11:57:49.907Z,2.05
2022-10-05T12:01:58.357Z,1.48
2022-10-05T12:06:10.716Z,2.90
2022-10-05T12:10:30.911Z,2.10
2022-10-05T12:14:43.103Z,1.80
2022-10-05T12:19:02.267Z,2.22
2022-10-05T12:23:07.287Z,2.50
2022-10-05T12:27:13.695Z,2.85
2022-10-05T12:31:23.549Z,2.85
2022-10-05T12:35:47.407Z,1.92
2022-10-05T12:39:55.331Z,2.65
2022-10-05T12:44:14.673Z,2.80
2022-10-05T12:48:33.889Z,2.60
2022-10-05T12:52:55.702Z,2.22
2022-10-05T12:56:59.704Z,2.65
2022-10-05T13:01:11.832Z,2.45
2022-10-05T13:05:23.625Z,2.75
2022-10-05T13:09:34.735Z,3.05
2022-10-05T13:13:47.118Z,2.65
2022-10-05T13:17:55.965Z,2.30
2022-10-05T13:22:12.175Z,2.20
2022-10-05T13:26:19.576Z,2.00
2022-10-05T13:30:21.533Z,2.10
2022-10-05T13:34:30.094Z,2.42
2022-10-05T13:38:43.579Z,2.10
2022-10-05T13:42:53.455Z,5.55
2022-10-05T13:47:00.503Z,3.00
2022-10-05T13:51:10.371Z,2.65
2022-10-05T13:55:20.176Z,2.92
2022-10-05T13:59:31.415Z,3.83
2022-10-05T14:03:34.749Z,2.97
2022-10-05T14:07:39.260Z,2.28
2022-10-05T14:11:39.907Z,2.20
2022-10-05T14:15:42.457Z,3.13
2022-10-05T14:19:46.957Z,1.77
2022-10-05T14:23:47.160Z,2.33
2022-10-05T14:27:59.692Z,3.50
2022-10-05T14:32:13.743Z,2.53
2022-10-05T14:36:21.272Z,2.60
2022-10-05T14:40:27.126Z,2.45
2022-10-05T14:48:44.526Z,2.50
2022-10-05T14:52:51.774Z,2.30
2022-10-05T14:57:02.161Z,2.50
2022-10-05T15:01:13.362Z,1.88
2022-10-05T15:05:20.673Z,3.08
2022-10-05T15:09:48.114Z,2.88
2022-10-05T15:13:49.241Z,2.30
2022-10-05T15:17:55.975Z,3.13
2022-10-05T15:22:15.319Z,3.10
2022-10-05T15:26:31.902Z,4.20
2022-10-05T15:30:35.724Z,10.00
2022-10-05T15:34:40.974Z,8.35
2022-10-05T15:39:00.376Z,7.05
2022-10-05T15:43:08.499Z,7.07
2022-10-05T15:47:27.865Z,4.32
2022-10-05T15:51:38.394Z,4.30
2022-10-05T15:55:52.285Z,4.13
2022-10-05T16:00:57.884Z,3.72
2022-10-05T16:04:55.726Z,3.83
2022-10-05T16:09:09.229Z,3.60
2022-10-05T16:13:25.039Z,3.03
2022-10-05T16:17:47.763Z,3.90
2022-10-05T16:21:58.923Z,4.50
2022-10-05T16:26:23.191Z,5.95
2022-10-05T16:30:26.527Z,6.38
2022-10-05T16:34:44.890Z,9.57
2022-10-05T16:38:55.202Z,17.42
2022-10-05T16:43:12.834Z,10.27
2022-10-05T16:47:36.831Z,5.32
2022-10-05T16:51:44.822Z,7.32
2022-10-05T16:55:48.203Z,7.97
2022-10-05T17:00:23.734Z,7.97
2022-10-05T17:04:46.079Z,10.02
2022-10-05T17:09:12.557Z,7.40
2022-10-05T17:13:39.818Z,9.23
2022-10-05T17:17:53.467Z,6.53
2022-10-05T17:22:02.871Z,6.15
2022-10-05T17:26:30.393Z,5.78
2022-10-05T17:30:53.628Z,8.68
2022-10-05T17:35:18.647Z,6.82
2022-10-05T17:39:23.149Z,8.65
2022-10-05T17:43:28.871Z,7.50
2022-10-05T17:48:00.843Z,6.63
2022-10-05T17:52:39.231Z,7.55
2022-10-05T19:21:56.465Z,5.32
2022-10-05T19:26:19.085Z,4.75
2022-10-05T19:30:27.441Z,4.95
2022-10-05T19:34:51.073Z,5.22
2022-10-05T19:39:12.824Z,4.95
2022-10-05T19:43:57.634Z,4.50
2022-10-05T19:48:18.615Z,5.20
2022-10-05T19:52:46.343Z,5.83
2022-10-05T19:57:02.788Z,5.50
2022-10-05T20:01:06.713Z,5.38
2022-10-05T20:05:10.025Z,5.00
2022-10-05T20:09:26.484Z,5.88
2022-10-05T20:13:33.629Z,5.53
2022-10-05T20:17:49.520Z,5.22
2022-10-05T20:21:51.718Z,6.05
2022-10-05T20:26:05.748Z,7.60
2022-10-05T20:30:10.622Z,6.10
2022-10-05T20:34:12.901Z,6.82
2022-10-05T20:38:17.118Z,6.18
2022-10-05T20:42:24.614Z,6.30
2022-10-05T20:46:31.582Z,5.38
2022-10-05T20:50:33.265Z,6.10
2022-10-05T20:54:37.657Z,5.70
2022-10-05T20:58:44.082Z,5.53
2022-10-05T21:02:49.216Z,6.95
2022-10-05T21:06:53.584Z,6.32
2022-10-05T21:10:55.689Z,6.32
2022-10-05T21:14:56.673Z,5.57
2022-10-05T21:18:59.978Z,6.20
2022-10-05T21:23:00.711Z,5.53
2022-10-05T21:27:01.675Z,5.50
2022-10-05T21:31:38.931Z,6.15
2022-10-05T21:35:41.115Z,5.63
2022-10-05T21:39:41.813Z,5.75
2022-10-05T21:43:53.355Z,6.30
2022-10-05T21:47:55.045Z,5.15
2022-10-05T21:51:57.760Z,5.85
2022-10-05T21:56:02.990Z,5.00
2022-10-05T22:00:07.847Z,4.82
2022-10-05T22:04:10.638Z,4.75
2022-10-05T22:08:28.131Z,4.97
2022-10-05T22:12:29.403Z,4.93
2022-10-05T22:16:31.409Z,4.57
2022-10-05T22:20:34.854Z,4.15
2022-10-05T22:24:37.701Z,5.20
2022-10-05T22:28:39.501Z,5.30
2022-10-05T22:32:40.835Z,5.55
2022-10-05T22:36:45.988Z,4.75
2022-10-05T22:40:49.694Z,6.78
2022-10-05T22:45:01.816Z,4.70
2022-10-05T22:49:15.860Z,4.50
2022-10-05T22:53:24.869Z,4.80
2022-10-05T22:57:41.613Z,5.28
2022-10-05T23:01:50.697Z,4.45
2022-10-05T23:06:21.192Z,5.18
2022-10-05T23:10:30.827Z,4.95
2022-10-05T23:14:42.321Z,5.32
2022-10-05T23:18:58.247Z,5.43
2022-10-05T23:22:59.650Z,5.25
2022-10-05T23:27:08.846Z,4.57
2022-10-05T23:31:17.367Z,4.95
2022-10-05T23:35:26.212Z,4.97
2022-10-05T23:39:36.821Z,4.78
2022-10-05T23:43:41.330Z,5.30
2022-10-05T23:47:54.883Z,4.20
2022-10-05T23:52:00.548Z,4.65
2022-10-05T23:56:04.042Z,7.00
